Time;durP1;ratioP1;P1;durP2;ratioP2;P2;SDS_P1;SDS_P2;PMS_P1;PMS_P2;Temp;Humidity;BMP_temperature;BMP_pressure;BME280_temperature;BME280_humidity;BME280_pressure;Samples;Min_cycle;Max_cycle;Signal;HPM_P1;HPM_P2
2022/03/12 00:01:22;;;;;;;12.35;6.28;;;8.10;53.30;;;;;;5006029;28;20257;-56
2022/03/12 00:03:50;;;;;;;12.18;5.60;;;8.10;53.20;;;;;;5008631;28;20041;-56
2022/03/12 00:06:17;;;;;;;11.95;6.72;;;8.10;53.30;;;;;;5018797;28;20037;-57
2022/03/12 00:08:44;;;;;;;9.32;5.65;;;8.00;53.60;;;;;;5029369;28;20049;-57
2022/03/12 00:11:11;;;;;;;7.90;5.82;;;8.00;53.90;;;;;;5024600;28;20136;-56
2022/03/12 00:13:37;;;;;;;11.75;6.07;;;8.00;53.90;;;;;;5012373;28;20037;-57
2022/03/12 00:16:03;;;;;;;9.38;6.20;;;8.00;53.70;;;;;;5030359;28;20053;-57
2022/03/12 00:18:30;;;;;;;8.77;6.03;;;7.90;53.80;;;;;;5010396;28;20040;-56
2022/03/12 00:21:02;;;;;;;10.98;6.47;;;7.90;54.00;;;;;;5025529;28;20041;-57
2022/03/12 00:23:29;;;;;;;9.43;6.28;;;7.90;54.00;;;;;;5027899;28;20052;-57
2022/03/12 00:25:55;;;;;;;8.80;5.50;;;7.90;53.90;;;;;;5030772;28;20040;-56
2022/03/12 00:28:21;;;;;;;12.32;6.43;;;7.80;53.80;;;;;;5026913;28;20465;-55
2022/03/12 00:30:50;;;;;;;8.77;6.00;;;7.80;54.00;;;;;;5029746;28;20044;-57
2022/03/12 00:33:21;;;;;;;9.70;5.75;;;7.80;54.20;;;;;;5027766;28;20120;-57
2022/03/12 00:35:52;;;;;;;9.95;5.93;;;7.80;54.10;;;;;;5009932;28;20045;-54
2022/03/12 00:38:21;;;;;;;12.57;5.35;;;7.80;54.30;;;;;;5027613;28;20033;-54
2022/03/12 00:40:47;;;;;;;11.77;5.85;;;7.70;54.10;;;;;;5032280;28;20037;-56
2022/03/12 00:43:15;;;;;;;9.45;5.70;;;7.70;54.10;;;;;;5025148;28;20148;-55
2022/03/12 00:45:41;;;;;;;10.45;5.88;;;7.70;53.50;;;;;;5047958;28;20420;-56
2022/03/12 00:48:07;;;;;;;10.90;5.88;;;7.60;53.90;;;;;;5029237;28;20459;-56
2022/03/12 00:50:33;;;;;;;10.18;6.03;;;7.70;53.70;;;;;;5032817;28;20045;-54
2022/03/12 00:53:00;;;;;;;10.02;6.25;;;7.70;53.90;;;;;;5011894;28;20080;-57
2022/03/12 00:55:26;;;;;;;9.65;6.15;;;7.70;53.80;;;;;;5026155;28;20495;-56
2022/03/12 00:57:52;;;;;;;11.82;6.03;;;7.70;54.00;;;;;;5028706;28;20171;-54
2022/03/12 01:00:20;;;;;;;8.63;5.93;;;7.60;53.90;;;;;;5027598;28;20068;-56
2022/03/12 01:02:47;;;;;;;9.70;6.03;;;7.60;53.50;;;;;;5029018;28;20040;-55
2022/03/12 01:05:18;;;;;;;8.68;5.72;;;7.60;53.60;;;;;;5026467;28;20244;-55
2022/03/12 01:07:45;;;;;;;8.60;5.47;;;7.70;53.90;;;;;;4995441;28;20041;-56
2022/03/12 01:10:12;;;;;;;9.52;6.63;;;7.60;53.60;;;;;;5011529;28;20440;-56
2022/03/12 01:12:37;;;;;;;9.85;6.93;;;7.60;53.50;;;;;;5006749;28;20283;-56
2022/03/12 01:15:05;;;;;;;9.18;6.30;;;7.60;54.00;;;;;;5006186;28;20453;-56
2022/03/12 01:17:34;;;;;;;10.50;6.22;;;7.60;54.20;;;;;;5003373;28;20048;-55
2022/03/12 01:20:02;;;;;;;9.55;5.95;;;7.60;53.80;;;;;;4988032;28;20493;-55
2022/03/12 01:22:32;;;;;;;8.85;5.85;;;7.60;53.80;;;;;;5027236;28;20483;-55
2022/03/12 01:24:58;;;;;;;9.88;5.35;;;7.60;54.10;;;;;;5006032;28;20151;-55
2022/03/12 01:27:24;;;;;;;10.70;5.82;;;7.60;54.10;;;;;;5007311;28;20698;-55
2022/03/12 01:29:49;;;;;;;8.48;5.63;;;7.60;54.30;;;;;;5006854;28;20044;-55
2022/03/12 01:32:15;;;;;;;9.25;6.28;;;7.60;54.20;;;;;;5022339;28;20419;-54
2022/03/12 01:34:41;;;;;;;10.65;5.40;;;7.50;54.30;;;;;;5021510;28;21514;-55
2022/03/12 01:37:08;;;;;;;10.60;6.22;;;7.50;54.00;;;;;;5010507;28;20686;-55
2022/03/12 01:39:34;;;;;;;9.93;5.90;;;7.50;54.10;;;;;;5003705;28;20045;-55
2022/03/12 01:41:59;;;;;;;9.65;5.93;;;7.50;53.70;;;;;;5005719;28;20067;-54
2022/03/12 01:44:25;;;;;;;10.77;6.00;;;7.60;53.70;;;;;;5008845;28;20491;-55
2022/03/12 01:46:51;;;;;;;10.20;6.22;;;7.60;53.70;;;;;;5006639;28;20041;-53
2022/03/12 01:49:23;;;;;;;9.60;5.55;;;7.60;53.70;;;;;;5019646;28;20049;-55
2022/03/12 01:51:54;;;;;;;13.02;6.40;;;7.50;53.90;;;;;;5045147;28;20037;-54
2022/03/12 01:54:23;;;;;;;10.07;5.63;;;7.60;53.50;;;;;;5040549;28;20091;-55
2022/03/12 01:56:50;;;;;;;9.68;6.43;;;7.60;53.50;;;;;;5023831;28;20045;-56
2022/03/12 01:59:16;;;;;;;11.63;6.22;;;7.60;53.50;;;;;;5042879;28;20112;-55
2022/03/12 02:01:41;;;;;;;9.25;5.47;;;7.60;53.40;;;;;;5023454;28;20141;-56
2022/03/12 02:04:08;;;;;;;10.13;6.90;;;7.60;53.40;;;;;;5043800;22;20435;-56
2022/03/12 02:06:35;;;;;;;9.57;6.07;;;7.60;53.10;;;;;;5101434;28;20036;-54
2022/03/12 02:09:02;;;;;;;13.43;5.95;;;7.70;52.50;;;;;;5051218;28;20289;-55
2022/03/12 02:11:30;;;;;;;9.20;6.47;;;7.80;53.00;;;;;;5071878;28;20126;-57
2022/03/12 02:13:59;;;;;;;8.90;5.60;;;7.80;53.00;;;;;;5102246;28;20031;-53
2022/03/12 02:16:25;;;;;;;11.43;6.13;;;7.80;52.90;;;;;;5089198;28;20054;-53
2022/03/12 02:18:51;;;;;;;8.35;5.85;;;7.80;52.60;;;;;;5082113;28;20092;-55
2022/03/12 02:21:41;;;;;;;10.30;6.28;;;7.80;52.50;;;;;;5102042;28;20443;-57
2022/03/12 02:24:12;;;;;;;10.27;6.03;;;7.80;52.70;;;;;;5075922;28;20040;-56
2022/03/12 02:26:42;;;;;;;10.25;6.20;;;7.90;52.80;;;;;;5087016;28;20431;-53
2022/03/12 02:29:12;;;;;;;11.05;6.45;;;7.90;52.70;;;;;;5106036;28;20039;-56
2022/03/12 02:31:41;;;;;;;10.38;6.05;;;8.00;52.10;;;;;;5083346;28;20489;-54
2022/03/12 02:34:11;;;;;;;9.88;6.53;;;8.00;51.80;;;;;;5064317;28;20044;-57
2022/03/12 02:36:39;;;;;;;13.15;6.35;;;8.10;52.00;;;;;;5086851;28;20039;-56
2022/03/12 02:39:05;;;;;;;14.65;6.45;;;8.10;52.30;;;;;;5081696;28;20051;-53
2022/03/12 02:41:31;;;;;;;11.30;7.00;;;8.10;51.60;;;;;;5078618;28;20501;-57
2022/03/12 02:43:57;;;;;;;11.07;6.47;;;8.20;51.70;;;;;;5068242;28;20036;-56
2022/03/12 02:46:25;;;;;;;9.05;6.32;;;8.20;51.70;;;;;;5069501;28;20043;-55
2022/03/12 02:48:52;;;;;;;13.80;6.45;;;8.20;51.70;;;;;;5078269;28;20095;-53
2022/03/12 02:51:21;;;;;;;10.07;7.35;;;8.30;51.80;;;;;;5083834;28;20069;-55
2022/03/12 02:53:50;;;;;;;11.75;6.70;;;8.30;51.60;;;;;;5069656;28;20386;-56
2022/03/12 02:56:18;;;;;;;12.95;6.55;;;8.30;51.30;;;;;;5092868;28;20309;-52
2022/03/12 02:58:43;;;;;;;8.00;6.00;;;8.30;51.80;;;;;;5067688;28;20046;-53
2022/03/12 03:01:14;;;;;;;12.40;6.03;;;8.40;51.30;;;;;;5092887;28;20043;-54
2022/03/12 03:03:42;;;;;;;8.55;5.43;;;8.40;51.50;;;;;;5092424;28;20322;-56
2022/03/12 03:06:09;;;;;;;10.90;6.38;;;8.40;51.60;;;;;;5111568;27;20051;-56
2022/03/12 03:08:37;;;;;;;13.38;7.00;;;8.40;51.40;;;;;;5085860;28;20043;-56
2022/03/12 03:11:13;;;;;;;11.75;6.72;;;8.50;50.70;;;;;;5091560;28;20051;-56
2022/03/12 03:13:44;;;;;;;8.60;6.25;;;8.50;50.20;;;;;;5087267;28;20051;-52
2022/03/12 03:16:21;;;;;;;8.60;5.97;;;8.60;50.30;;;;;;5092204;28;20039;-55
2022/03/12 03:18:53;;;;;;;10.55;6.47;;;8.60;50.60;;;;;;5089055;28;20044;-54
2022/03/12 03:21:21;;;;;;;9.15;6.05;;;8.60;50.70;;;;;;5077367;28;20039;-56
2022/03/12 03:23:47;;;;;;;8.90;6.03;;;8.60;50.80;;;;;;5105139;28;20115;-55
2022/03/12 03:26:18;;;;;;;12.00;6.50;;;8.60;50.80;;;;;;5068473;28;20124;-53
2022/03/12 03:28:44;;;;;;;9.63;6.10;;;8.60;51.00;;;;;;5086559;28;20474;-55
2022/03/12 03:31:11;;;;;;;13.13;6.70;;;8.60;51.20;;;;;;5069646;28;20123;-56
2022/03/12 03:33:37;;;;;;;11.48;6.32;;;8.60;51.20;;;;;;5081099;28;20044;-58
2022/03/12 03:36:03;;;;;;;9.70;6.57;;;8.60;51.50;;;;;;5086782;27;20066;-55
2022/03/12 03:38:29;;;;;;;12.73;6.72;;;8.70;51.50;;;;;;5078582;27;20043;-56
2022/03/12 03:40:55;;;;;;;11.40;6.25;;;8.70;52.40;;;;;;5087892;28;20317;-56
2022/03/12 03:43:23;;;;;;;11.48;6.97;;;8.70;51.90;;;;;;5087019;28;20072;-53
2022/03/12 03:45:52;;;;;;;9.88;6.70;;;8.70;52.10;;;;;;5097125;28;20043;-55
2022/03/12 03:48:20;;;;;;;12.13;6.63;;;8.70;52.30;;;;;;5105051;27;20455;-53
2022/03/12 03:50:47;;;;;;;13.27;6.68;;;8.70;52.70;;;;;;5087630;28;20040;-53
2022/03/12 03:53:16;;;;;;;10.32;6.90;;;8.70;53.10;;;;;;5121723;27;20452;-57
2022/03/12 03:55:42;;;;;;;11.82;6.90;;;8.60;53.20;;;;;;5093355;28;20190;-56
2022/03/12 03:58:08;;;;;;;12.38;6.97;;;8.60;53.50;;;;;;5068261;28;20071;-57
2022/03/12 04:00:34;;;;;;;11.43;7.00;;;8.60;53.50;;;;;;5100456;28;20032;-55
2022/03/12 04:03:04;;;;;;;14.05;7.15;;;8.60;53.70;;;;;;5074051;28;20071;-56
2022/03/12 04:05:38;;;;;;;13.20;7.57;;;8.60;53.80;;;;;;5080300;28;20040;-57
2022/03/12 04:08:07;;;;;;;11.77;7.22;;;8.60;53.90;;;;;;5084433;28;20062;-56
2022/03/12 04:10:37;;;;;;;12.88;7.00;;;8.60;54.40;;;;;;5107382;27;20043;-56
2022/03/12 04:13:11;;;;;;;8.52;6.28;;;8.50;54.80;;;;;;5087017;28;20047;-55
2022/03/12 04:15:37;;;;;;;12.32;7.93;;;8.50;55.80;;;;;;5084526;28;20040;-55
2022/03/12 04:18:04;;;;;;;10.40;7.07;;;8.40;55.90;;;;;;5078194;28;20114;-55
2022/03/12 04:20:30;;;;;;;14.13;7.65;;;8.40;56.80;;;;;;5089917;28;20553;-56
2022/03/12 04:22:56;;;;;;;12.10;7.68;;;8.40;58.10;;;;;;5083966;28;20115;-56
2022/03/12 04:25:22;;;;;;;11.15;7.20;;;8.30;58.70;;;;;;5087970;28;20039;-53
2022/03/12 04:27:49;;;;;;;11.98;7.70;;;8.30;59.20;;;;;;5063879;28;20699;-53
2022/03/12 04:30:20;;;;;;;12.18;7.50;;;8.20;59.80;;;;;;5087454;28;20044;-54
2022/03/12 04:32:46;;;;;;;11.85;7.82;;;8.20;61.00;;;;;;5070817;28;20811;-56
2022/03/12 04:35:13;;;;;;;11.95;8.38;;;8.10;62.20;;;;;;5069473;28;20498;-56
2022/03/12 04:37:39;;;;;;;15.20;7.25;;;8.00;62.40;;;;;;5083630;28;20035;-53
2022/03/12 04:40:17;;;;;;;10.68;7.10;;;7.90;63.30;;;;;;5088961;28;20517;-56
2022/03/12 04:42:44;;;;;;;12.68;7.82;;;7.90;64.90;;;;;;5087892;28;20197;-52
2022/03/12 04:45:17;;;;;;;11.82;7.60;;;7.80;65.10;;;;;;5090148;28;20051;-55
2022/03/12 04:47:48;;;;;;;10.13;7.25;;;7.80;66.10;;;;;;5102758;28;20046;-53
2022/03/12 04:50:15;;;;;;;11.15;7.90;;;7.70;66.10;;;;;;5087734;28;20039;-55
2022/03/12 04:52:43;;;;;;;13.20;8.27;;;7.70;66.50;;;;;;5088400;28;20035;-54
2022/03/12 04:55:11;;;;;;;11.07;8.18;;;7.70;67.20;;;;;;5070141;28;20449;-55
2022/03/12 04:57:37;;;;;;;12.40;8.90;;;7.60;68.10;;;;;;5084390;28;20043;-52
2022/03/12 05:00:06;;;;;;;14.88;9.55;;;7.50;70.70;;;;;;5102991;28;20039;-56
2022/03/12 05:02:32;;;;;;;12.98;8.68;;;7.50;69.80;;;;;;5064796;28;20179;-54
2022/03/12 05:04:58;;;;;;;18.33;9.18;;;7.40;70.60;;;;;;5067518;28;20040;-53
2022/03/12 05:07:25;;;;;;;15.07;8.90;;;7.30;71.50;;;;;;5082890;28;20383;-53
2022/03/12 05:09:51;;;;;;;13.00;8.18;;;7.30;71.30;;;;;;5083009;28;20039;-53
2022/03/12 05:12:17;;;;;;;12.80;8.27;;;7.20;71.30;;;;;;5061792;28;20269;-55
2022/03/12 05:14:44;;;;;;;12.25;8.00;;;7.20;71.50;;;;;;5085423;28;20039;-53
2022/03/12 05:17:10;;;;;;;13.35;7.63;;;7.20;70.80;;;;;;5084897;28;20048;-54
2022/03/12 05:19:36;;;;;;;12.70;7.95;;;7.10;71.00;;;;;;5070932;27;20501;-56
2022/03/12 05:22:07;;;;;;;14.43;10.05;;;7.10;71.90;;;;;;5089154;28;20051;-56
2022/03/12 05:24:34;;;;;;;12.38;7.70;;;7.00;71.80;;;;;;5087937;28;20490;-53
2022/03/12 05:27:01;;;;;;;12.82;8.65;;;7.00;72.20;;;;;;5094749;28;20049;-57
2022/03/12 05:29:27;;;;;;;13.98;8.80;;;6.90;73.00;;;;;;5085675;28;20108;-55
2022/03/12 05:31:53;;;;;;;14.27;7.78;;;6.90;72.40;;;;;;5082983;28;20047;-54
2022/03/12 05:34:25;;;;;;;12.40;8.70;;;6.90;73.20;;;;;;5080975;28;20047;-55
2022/03/12 05:36:51;;;;;;;13.57;9.40;;;6.80;73.40;;;;;;5084890;27;20115;-55
2022/03/12 05:39:19;;;;;;;12.00;8.25;;;6.80;73.20;;;;;;5068764;27;20435;-55
2022/03/12 05:41:49;;;;;;;15.57;10.43;;;6.80;73.20;;;;;;5099573;28;20035;-56
2022/03/12 05:44:15;;;;;;;12.50;8.07;;;6.90;73.40;;;;;;5086331;28;20044;-56
2022/03/12 05:46:44;;;;;;;14.73;8.88;;;6.90;73.00;;;;;;5091588;28;20042;-56
2022/03/12 05:49:10;;;;;;;11.93;8.43;;;6.90;72.90;;;;;;5085092;28;20576;-56
2022/03/12 05:51:36;;;;;;;12.30;8.00;;;6.90;73.00;;;;;;5088128;28;20126;-54
2022/03/12 05:54:03;;;;;;;11.82;7.65;;;6.90;72.40;;;;;;5084986;28;20055;-55
2022/03/12 05:56:29;;;;;;;11.25;8.55;;;6.90;72.20;;;;;;5089780;28;20043;-55
2022/03/12 05:58:55;;;;;;;14.48;9.10;;;7.00;71.90;;;;;;5081510;28;20036;-53
2022/03/12 06:01:20;;;;;;;13.25;8.57;;;6.90;71.80;;;;;;5083518;28;20135;-52
2022/03/12 06:03:47;;;;;;;14.05;8.27;;;6.90;71.50;;;;;;5084933;28;20115;-56
2022/03/12 06:06:13;;;;;;;11.68;8.48;;;7.00;71.50;;;;;;5033247;28;20040;-55
2022/03/12 06:08:40;;;;;;;13.88;8.65;;;7.00;71.30;;;;;;5060103;28;20044;-57
2022/03/12 06:11:06;;;;;;;12.40;7.82;;;7.00;71.20;;;;;;5041542;28;20047;-54
2022/03/12 06:13:33;;;;;;;11.70;7.75;;;7.00;70.90;;;;;;5065595;28;20303;-56
2022/03/12 06:16:02;;;;;;;14.63;8.85;;;7.00;70.30;;;;;;5036992;28;20035;-56
2022/03/12 06:18:37;;;;;;;13.32;8.18;;;7.00;70.00;;;;;;5086832;28;20035;-57
2022/03/12 06:21:04;;;;;;;17.52;8.25;;;7.00;69.70;;;;;;5083078;28;20047;-56
2022/03/12 06:23:30;;;;;;;15.30;8.80;;;7.10;69.40;;;;;;5099812;28;20630;-56
2022/03/12 06:25:57;;;;;;;13.18;8.05;;;7.10;69.20;;;;;;5105611;28;20078;-52
2022/03/12 06:28:23;;;;;;;14.02;8.55;;;7.10;69.00;;;;;;5070720;28;20048;-54
2022/03/12 06:30:53;;;;;;;16.17;9.00;;;7.10;69.10;;;;;;5082454;28;20351;-57
2022/03/12 06:33:19;;;;;;;11.45;7.68;;;7.10;68.90;;;;;;5091238;28;20039;-55
2022/03/12 06:35:47;;;;;;;13.85;8.40;;;7.10;69.00;;;;;;5104037;28;20379;-54
2022/03/12 06:38:16;;;;;;;10.65;7.78;;;7.00;68.90;;;;;;5104222;28;20100;-56
2022/03/12 06:40:43;;;;;;;12.85;7.93;;;7.00;69.00;;;;;;5087758;28;20074;-57
2022/03/12 06:43:15;;;;;;;11.32;7.90;;;7.00;69.50;;;;;;5102343;28;20071;-56
2022/03/12 06:45:41;;;;;;;11.70;8.57;;;6.90;69.30;;;;;;5078917;28;20040;-55
2022/03/12 06:48:07;;;;;;;13.07;7.93;;;6.90;69.90;;;;;;5067653;28;20383;-55
2022/03/12 06:50:32;;;;;;;12.40;7.93;;;6.90;69.20;;;;;;5086219;28;20050;-52
2022/03/12 06:52:58;;;;;;;12.18;8.70;;;6.90;69.20;;;;;;5084222;28;20562;-54
2022/03/12 06:55:27;;;;;;;12.50;8.20;;;7.00;69.40;;;;;;5087586;28;20040;-56
2022/03/12 06:57:54;;;;;;;12.30;8.68;;;6.90;69.60;;;;;;5104213;28;20074;-53
2022/03/12 07:00:25;;;;;;;13.57;8.60;;;6.90;69.90;;;;;;5087768;28;20216;-55
2022/03/12 07:02:51;;;;;;;13.85;9.43;;;6.80;69.80;;;;;;5082378;28;20774;-57
2022/03/12 07:05:17;;;;;;;15.13;8.63;;;6.80;70.20;;;;;;5072944;28;20086;-56
2022/03/12 07:07:43;;;;;;;12.50;8.43;;;6.90;69.80;;;;;;5083341;28;20047;-55
2022/03/12 07:10:10;;;;;;;11.65;8.20;;;6.80;69.90;;;;;;5064665;28;20100;-56
2022/03/12 07:12:36;;;;;;;14.68;8.60;;;7.10;70.20;;;;;;5083171;28;20044;-54
2022/03/12 07:15:04;;;;;;;12.77;8.93;;;7.30;70.00;;;;;;5086059;28;20083;-55
2022/03/12 07:17:31;;;;;;;14.18;8.43;;;7.40;69.80;;;;;;5080883;28;20319;-56
2022/03/12 07:19:57;;;;;;;12.18;8.40;;;7.50;69.60;;;;;;5103548;28;20038;-55
2022/03/12 07:22:22;;;;;;;12.32;8.23;;;7.50;69.30;;;;;;5081079;28;20212;-56
2022/03/12 07:24:48;;;;;;;12.55;8.65;;;7.60;69.20;;;;;;5078172;28;20039;-57
2022/03/12 07:27:14;;;;;;;14.48;9.10;;;7.60;69.30;;;;;;5111472;28;20439;-56
2022/03/12 07:29:40;;;;;;;13.00;8.73;;;7.70;69.10;;;;;;5068455;28;20061;-57
2022/03/12 07:32:06;;;;;;;15.70;8.90;;;7.70;69.40;;;;;;5095999;28;20089;-54
2022/03/12 07:34:32;;;;;;;13.90;8.55;;;7.80;70.00;;;;;;5081277;28;20040;-56
2022/03/12 07:36:58;;;;;;;15.65;8.70;;;7.90;69.40;;;;;;5104197;28;20043;-57
2022/03/12 07:39:25;;;;;;;12.80;8.68;;;7.90;69.20;;;;;;5086486;28;20114;-55
2022/03/12 07:41:50;;;;;;;13.93;8.50;;;8.00;68.90;;;;;;5084534;28;20429;-55
2022/03/12 07:44:16;;;;;;;15.00;8.52;;;8.00;68.60;;;;;;5086437;28;20145;-56
2022/03/12 07:46:43;;;;;;;12.57;8.63;;;8.10;68.50;;;;;;5085856;28;20516;-55
2022/03/12 07:49:09;;;;;;;12.32;8.68;;;8.10;68.20;;;;;;5071437;28;20078;-56
2022/03/12 07:51:35;;;;;;;11.80;8.90;;;8.20;68.30;;;;;;5083967;28;20071;-55
2022/03/12 07:54:04;;;;;;;12.13;8.43;;;8.20;68.50;;;;;;5061888;28;20108;-57
2022/03/12 07:56:30;;;;;;;12.68;8.15;;;8.30;68.40;;;;;;5086052;28;20138;-57
2022/03/12 07:58:56;;;;;;;12.45;8.98;;;8.30;68.30;;;;;;5085886;28;20070;-55
2022/03/12 08:01:22;;;;;;;15.57;8.00;;;8.40;68.40;;;;;;5090247;28;20143;-56
2022/03/12 08:03:48;;;;;;;14.30;9.23;;;8.50;67.90;;;;;;5105046;28;20063;-57
2022/03/12 08:06:16;;;;;;;12.30;7.93;;;8.50;68.00;;;;;;5076886;28;20094;-54
2022/03/12 08:08:42;;;;;;;13.95;8.27;;;8.60;68.10;;;;;;5075093;28;20038;-55
2022/03/12 08:11:28;;;;;;;14.40;8.65;;;8.70;67.40;;;;;;5096896;27;20043;-56
2022/03/12 08:14:02;;;;;;;13.40;8.32;;;8.70;67.50;;;;;;5080209;28;20121;-57
2022/03/12 08:16:35;;;;;;;11.30;8.48;;;8.90;67.80;;;;;;5084627;28;20048;-56
2022/03/12 08:19:06;;;;;;;12.18;8.85;;;9.00;67.80;;;;;;5081673;27;20036;-57
2022/03/12 08:21:33;;;;;;;12.48;8.60;;;9.10;67.50;;;;;;5086586;28;20040;-56
2022/03/12 08:23:59;;;;;;;12.73;8.77;;;9.20;67.20;;;;;;5076137;28;20071;-55
2022/03/12 08:26:26;;;;;;;13.52;8.80;;;9.30;67.00;;;;;;5081636;28;20083;-56
2022/03/12 08:28:51;;;;;;;15.05;9.15;;;9.40;66.80;;;;;;5083263;28;20364;-56
2022/03/12 08:31:18;;;;;;;13.95;8.80;;;9.50;67.00;;;;;;5088262;28;20054;-56
2022/03/12 08:33:44;;;;;;;16.30;9.50;;;9.50;67.20;;;;;;5107695;28;20067;-56
2022/03/12 08:36:10;;;;;;;14.15;8.60;;;9.50;67.30;;;;;;5092008;28;20067;-53
2022/03/12 08:38:38;;;;;;;16.42;9.10;;;9.50;68.30;;;;;;5086828;28;20040;-55
2022/03/12 08:41:06;;;;;;;13.23;8.88;;;9.60;68.20;;;;;;5108376;28;20031;-55
2022/03/12 08:43:33;;;;;;;12.27;8.68;;;9.70;68.60;;;;;;5084226;28;20069;-55
2022/03/12 08:46:00;;;;;;;17.33;9.35;;;9.80;69.20;;;;;;5072774;28;20096;-53
2022/03/12 08:48:26;;;;;;;13.98;9.05;;;9.80;68.80;;;;;;5077795;28;20531;-54
2022/03/12 08:50:51;;;;;;;14.30;9.30;;;9.90;68.50;;;;;;5087223;27;20048;-56
2022/03/12 08:53:17;;;;;;;16.13;9.25;;;10.00;69.10;;;;;;5084322;28;20198;-56
2022/03/12 08:55:43;;;;;;;15.82;9.18;;;10.10;69.50;;;;;;5081534;28;20405;-55
2022/03/12 08:58:09;;;;;;;12.82;9.35;;;10.20;70.20;;;;;;5081563;28;20090;-55
2022/03/12 09:00:35;;;;;;;12.93;8.65;;;10.30;69.80;;;;;;5069391;28;20055;-55
2022/03/12 09:03:01;;;;;;;12.32;9.15;;;10.40;69.90;;;;;;5053993;28;20100;-54
2022/03/12 09:05:27;;;;;;;14.00;8.85;;;10.50;70.40;;;;;;5074887;28;20236;-54
2022/03/12 09:07:53;;;;;;;15.25;9.20;;;10.60;70.60;;;;;;5079686;28;20502;-53
2022/03/12 09:10:21;;;;;;;11.82;9.07;;;10.60;70.60;;;;;;5067026;28;20039;-56
2022/03/12 09:12:47;;;;;;;14.30;8.38;;;10.70;71.30;;;;;;5080374;28;20127;-56
2022/03/12 09:15:13;;;;;;;14.18;9.20;;;10.70;72.10;;;;;;5066411;28;20181;-56
2022/03/12 09:17:40;;;;;;;14.15;9.20;;;10.70;72.20;;;;;;5080213;28;20043;-53
2022/03/12 09:20:07;;;;;;;15.82;9.32;;;10.80;72.80;;;;;;5084544;28;20402;-55
2022/03/12 09:22:34;;;;;;;13.77;9.32;;;10.90;72.80;;;;;;5101186;28;20620;-56
2022/03/12 09:25:01;;;;;;;11.43;8.85;;;11.00;73.10;;;;;;5086707;28;20054;-54
2022/03/12 09:27:27;;;;;;;16.98;9.20;;;11.00;73.60;;;;;;5095426;27;20054;-54
2022/03/12 09:29:53;;;;;;;12.98;9.05;;;11.10;74.50;;;;;;5108798;27;20145;-54
2022/03/12 09:32:20;;;;;;;12.88;9.30;;;11.10;74.50;;;;;;5106489;28;20111;-55
2022/03/12 09:34:46;;;;;;;13.18;9.40;;;11.20;74.80;;;;;;5088611;28;20070;-56
2022/03/12 09:37:12;;;;;;;11.60;8.85;;;11.30;75.90;;;;;;5082855;28;20529;-56
2022/03/12 09:39:39;;;;;;;14.77;9.20;;;11.30;75.30;;;;;;5086504;28;20322;-52
2022/03/12 09:42:05;;;;;;;10.73;8.45;;;11.40;75.90;;;;;;5073948;28;20116;-55
2022/03/12 09:44:31;;;;;;;13.52;9.15;;;11.50;75.90;;;;;;5072968;27;20469;-56
2022/03/12 09:46:57;;;;;;;13.52;8.85;;;11.60;76.00;;;;;;5083280;28;20185;-53
2022/03/12 09:49:23;;;;;;;11.57;8.48;;;11.70;76.20;;;;;;5074271;28;20479;-54
2022/03/12 09:51:49;;;;;;;10.07;8.20;;;11.90;75.80;;;;;;5087476;28;20134;-55
2022/03/12 09:54:18;;;;;;;11.68;8.77;;;12.00;75.90;;;;;;5081915;28;20522;-55
2022/03/12 09:56:44;;;;;;;10.93;8.25;;;12.00;76.20;;;;;;5104137;28;20398;-54
2022/03/12 09:59:10;;;;;;;12.82;7.70;;;12.10;76.20;;;;;;5084567;28;20482;-53
2022/03/12 10:01:35;;;;;;;12.13;8.55;;;12.10;77.00;;;;;;5100272;28;20118;-55
2022/03/12 10:04:01;;;;;;;11.50;8.80;;;12.30;77.30;;;;;;5085410;28;20126;-57
2022/03/12 10:06:30;;;;;;;10.00;7.78;;;12.30;77.30;;;;;;5070693;28;20035;-53
2022/03/12 10:08:56;;;;;;;10.80;7.95;;;12.40;77.10;;;;;;5094389;28;20233;-56
2022/03/12 10:11:23;;;;;;;11.50;8.13;;;12.50;77.90;;;;;;5084049;28;20442;-54
2022/03/12 10:13:49;;;;;;;10.77;8.30;;;12.50;78.30;;;;;;5066460;28;20035;-54
2022/03/12 10:16:18;;;;;;;17.75;8.82;;;12.50;77.60;;;;;;5081678;28;20078;-56
2022/03/12 10:18:45;;;;;;;11.80;8.65;;;12.60;77.60;;;;;;5081222;28;20043;-56
2022/03/12 10:21:11;;;;;;;11.65;8.25;;;12.70;77.60;;;;;;5099854;28;20039;-56
2022/03/12 10:23:37;;;;;;;10.68;8.10;;;12.80;77.60;;;;;;5087255;28;20039;-56
2022/03/12 10:26:02;;;;;;;12.38;9.00;;;12.90;77.60;;;;;;5105358;28;20054;-54
2022/03/12 10:28:34;;;;;;;13.45;8.60;;;13.00;76.80;;;;;;5069079;28;20447;-55
2022/03/12 10:31:03;;;;;;;11.90;8.02;;;13.00;76.90;;;;;;5067283;28;20042;-56
2022/03/12 10:33:29;;;;;;;13.75;9.05;;;13.10;77.40;;;;;;5085432;28;20364;-55
2022/03/12 10:36:14;;;;;;;13.55;8.48;;;13.20;77.10;;;;;;5082918;28;20039;-55
2022/03/12 10:38:50;;;;;;;14.05;8.48;;;13.30;76.80;;;;;;5079941;28;20424;-55
2022/03/12 10:41:17;;;;;;;14.15;8.63;;;13.30;76.90;;;;;;5080327;28;20139;-57
2022/03/12 10:43:45;;;;;;;11.65;8.00;;;13.50;76.90;;;;;;5063438;28;20040;-58
2022/03/12 10:46:21;;;;;;;11.02;7.50;;;13.50;75.90;;;;;;5086768;28;20489;-55
2022/03/12 10:48:57;;;;;;;9.88;7.28;;;13.60;76.70;;;;;;5060747;28;20054;-55
2022/03/12 10:51:29;;;;;;;12.73;8.23;;;13.70;76.80;;;;;;5084389;28;20051;-56
2022/03/12 10:54:07;;;;;;;14.45;8.45;;;13.80;76.20;;;;;;5082267;28;20383;-53
2022/03/12 10:56:50;;;;;;;12.45;8.10;;;13.90;76.30;;;;;;5080126;28;20039;-57
2022/03/12 10:59:22;;;;;;;12.55;8.45;;;14.00;76.10;;;;;;5079605;28;20044;-55
2022/03/12 11:01:59;;;;;;;11.93;8.18;;;14.00;76.00;;;;;;5095878;28;20050;-56
2022/03/12 11:04:30;;;;;;;11.27;7.53;;;14.00;76.20;;;;;;5082586;28;20046;-54
2022/03/12 11:06:59;;;;;;;12.40;7.97;;;14.00;76.60;;;;;;5085181;28;20046;-54
2022/03/12 11:09:34;;;;;;;9.95;6.90;;;14.00;76.20;;;;;;5064135;28;20039;-60
2022/03/12 11:12:00;;;;;;;10.65;7.20;;;13.90;76.40;;;;;;5083562;28;20081;-55
2022/03/12 11:14:29;;;;;;;10.27;6.68;;;14.00;76.70;;;;;;5085161;28;20050;-56
2022/03/12 11:16:55;;;;;;;16.23;6.70;;;13.90;75.80;;;;;;5077295;27;20042;-56
2022/03/12 11:19:37;;;;;;;9.88;6.35;;;13.90;76.10;;;;;;5087827;28;20040;-54
2022/03/12 11:22:14;;;;;;;11.27;7.18;;;14.10;76.20;;;;;;5076840;28;20126;-56
2022/03/12 11:24:46;;;;;;;11.07;8.25;;;14.10;76.50;;;;;;5088190;28;20031;-57
2022/03/12 11:27:18;;;;;;;10.35;6.65;;;14.20;76.40;;;;;;5084500;28;20569;-56
2022/03/12 11:29:57;;;;;;;21.83;12.15;;;14.30;76.90;;;;;;5079858;27;20067;-56
2022/03/12 11:32:23;;;;;;;16.05;7.38;;;14.30;75.70;;;;;;5083773;28;20487;-56
2022/03/12 11:34:48;;;;;;;10.30;4.88;;;14.30;75.70;;;;;;5089046;28;20043;-55
2022/03/12 11:37:16;;;;;;;7.38;4.40;;;14.10;75.30;;;;;;5087350;28;20063;-55
2022/03/12 11:39:53;;;;;;;9.55;5.07;;;14.10;74.70;;;;;;5089777;28;20413;-57
2022/03/12 11:42:24;;;;;;;8.57;4.38;;;14.20;75.20;;;;;;5088340;28;20035;-56
2022/03/12 11:44:52;;;;;;;12.82;5.47;;;14.40;75.40;;;;;;5087781;28;20040;-56
2022/03/12 11:47:22;;;;;;;9.10;4.93;;;14.40;75.30;;;;;;5084302;28;20047;-56
2022/03/12 11:49:49;;;;;;;6.97;4.55;;;14.40;74.30;;;;;;5106700;28;20062;-57
2022/03/12 11:52:16;;;;;;;8.07;4.70;;;14.40;74.70;;;;;;5080424;28;20100;-56
2022/03/12 11:54:43;;;;;;;7.85;3.83;;;14.30;74.10;;;;;;5077546;28;20047;-56
2022/03/12 11:57:30;;;;;;;9.35;3.90;;;14.40;74.40;;;;;;5084509;28;20044;-57
2022/03/12 11:59:58;;;;;;;7.38;3.45;;;14.40;74.00;;;;;;5083469;28;20043;-55
2022/03/12 12:02:34;;;;;;;8.95;4.35;;;14.40;73.90;;;;;;5087454;28;20292;-55
2022/03/12 12:05:06;;;;;;;6.10;4.13;;;14.40;73.60;;;;;;5115046;27;20161;-57
2022/03/12 12:07:36;;;;;;;8.70;4.00;;;14.30;73.50;;;;;;5078972;28;20602;-57
2022/03/12 12:10:04;;;;;;;9.10;3.88;;;14.30;73.80;;;;;;5063003;28;20406;-56
2022/03/12 12:12:32;;;;;;;8.75;3.33;;;14.30;73.20;;;;;;5081968;28;20058;-55
2022/03/12 12:14:59;;;;;;;7.93;3.50;;;14.30;72.90;;;;;;5077401;28;20520;-57
2022/03/12 12:17:25;;;;;;;7.82;3.83;;;14.30;72.60;;;;;;5082558;28;20044;-54
2022/03/12 12:19:51;;;;;;;7.60;3.97;;;14.30;73.40;;;;;;5076793;28;20047;-56
2022/03/12 12:22:18;;;;;;;7.85;4.00;;;14.20;73.10;;;;;;5105083;28;20051;-54
2022/03/12 12:24:44;;;;;;;8.20;4.28;;;14.20;73.20;;;;;;5085734;28;20040;-56
2022/03/12 12:27:15;;;;;;;7.63;3.92;;;14.20;73.50;;;;;;5066153;28;20043;-57
2022/03/12 12:29:40;;;;;;;6.28;4.05;;;14.30;73.60;;;;;;5085585;28;20051;-55
2022/03/12 12:32:07;;;;;;;7.95;4.75;;;14.40;74.10;;;;;;5103422;28;20054;-52
2022/03/12 12:34:34;;;;;;;5.80;3.95;;;14.60;74.00;;;;;;5090634;28;20039;-57
2022/03/12 12:37:02;;;;;;;7.47;4.43;;;14.70;74.00;;;;;;5103584;27;20082;-53
2022/03/12 12:39:29;;;;;;;6.88;4.90;;;14.80;73.30;;;;;;5088173;28;20040;-53
2022/03/12 12:42:05;;;;;;;6.50;4.32;;;14.90;72.70;;;;;;5106295;27;20376;-55
2022/03/12 12:44:45;;;;;;;6.75;4.43;;;15.20;73.10;;;;;;5090174;28;20087;-56
2022/03/12 12:47:17;;;;;;;7.00;3.95;;;15.40;72.50;;;;;;5088050;28;20036;-54
2022/03/12 12:49:53;;;;;;;7.72;4.40;;;15.50;71.90;;;;;;5084080;28;20098;-56